createdAt,value
2019-02-25T00:01:07.570Z,5.10
2019-02-25T00:03:38.845Z,5.10
2019-02-25T00:06:11.009Z,5.00
2019-02-25T00:08:42.311Z,5.00
2019-02-25T00:11:13.586Z,5.00
2019-02-25T00:13:44.875Z,4.90
2019-02-25T00:16:16.171Z,4.80
2019-02-25T00:18:47.537Z,4.70
2019-02-25T00:21:18.672Z,4.80
2019-02-25T00:23:49.942Z,4.80
2019-02-25T00:26:22.476Z,4.70
2019-02-25T00:28:53.722Z,4.60
2019-02-25T00:31:35.627Z,4.60
2019-02-25T00:34:07.206Z,4.60
2019-02-25T00:36:38.538Z,4.60
2019-02-25T00:39:10.072Z,4.50
2019-02-25T00:41:41.488Z,4.50
2019-02-25T00:44:12.778Z,4.50
2019-02-25T00:46:43.891Z,4.50
2019-02-25T00:49:15.313Z,4.50
2019-02-25T00:51:46.515Z,4.70
2019-02-25T00:54:17.725Z,4.70
2019-02-25T00:56:49.043Z,4.60
2019-02-25T00:59:20.386Z,4.60
2019-02-25T01:01:51.581Z,4.70
2019-02-25T01:04:22.839Z,4.80
2019-02-25T01:06:54.045Z,4.80
2019-02-25T01:09:36.553Z,4.90
2019-02-25T01:12:09.804Z,5.00
2019-02-25T01:14:42.779Z,4.70
2019-02-25T01:17:25.194Z,4.70
2019-02-25T01:19:56.550Z,4.60
2019-02-25T01:22:28.186Z,4.60
2019-02-25T01:25:00.305Z,4.50
2019-02-25T01:27:31.755Z,4.50
2019-02-25T01:30:03.039Z,4.40
2019-02-25T01:32:34.855Z,4.50
2019-02-25T01:35:07.017Z,4.50
2019-02-25T01:37:38.227Z,4.40
2019-02-25T01:40:10.701Z,4.40
2019-02-25T01:42:42.021Z,4.40
2019-02-25T01:45:13.903Z,4.40
2019-02-25T01:47:46.864Z,4.40
2019-02-25T01:50:18.159Z,4.50
2019-02-25T01:52:49.522Z,4.60
2019-02-25T01:55:20.962Z,4.60
2019-02-25T01:57:52.154Z,4.60
2019-02-25T02:00:23.531Z,4.60
2019-02-25T02:02:54.804Z,4.60
2019-02-25T02:05:26.289Z,4.40
2019-02-25T02:07:57.604Z,4.40
2019-02-25T02:10:30.064Z,4.40
2019-02-25T02:13:01.492Z,4.40
2019-02-25T02:15:32.713Z,4.40
2019-02-25T02:18:04.296Z,4.40
2019-02-25T02:20:35.638Z,4.50
2019-02-25T02:23:06.886Z,4.60
2019-02-25T02:25:38.191Z,4.60
2019-02-25T02:28:20.883Z,4.60
2019-02-25T02:30:52.440Z,4.70
2019-02-25T02:33:23.584Z,4.70
2019-02-25T02:35:56.708Z,4.80
2019-02-25T02:38:27.894Z,4.90
2019-02-25T02:41:00.234Z,4.90
2019-02-25T02:43:31.583Z,5.00
2019-02-25T02:46:27.458Z,5.10
2019-02-25T02:49:02.381Z,5.10
2019-02-25T02:51:33.689Z,5.00
2019-02-25T02:54:04.972Z,5.10
2019-02-25T02:56:36.244Z,5.20
2019-02-25T02:59:07.558Z,5.20
2019-02-25T03:01:38.661Z,5.20
2019-02-25T03:04:09.866Z,5.20
2019-02-25T03:06:41.267Z,5.20
2019-02-25T03:09:13.019Z,5.20
2019-02-25T03:11:44.556Z,5.20
2019-02-25T03:14:15.778Z,5.20
2019-02-25T03:16:47.111Z,5.20
2019-02-25T03:19:19.154Z,5.20
2019-02-25T03:21:50.401Z,5.20
2019-02-25T03:24:21.632Z,5.10
2019-02-25T03:26:53.117Z,5.10
2019-02-25T03:29:24.541Z,5.10
2019-02-25T03:31:55.969Z,5.10
2019-02-25T03:34:27.561Z,5.20
2019-02-25T03:37:10.545Z,5.10
2019-02-25T03:39:41.937Z,5.10
2019-02-25T03:42:14.126Z,5.10
2019-02-25T03:44:45.627Z,5.10
2019-02-25T03:47:17.239Z,5.20
2019-02-25T03:49:48.617Z,5.10
2019-02-25T03:52:19.939Z,5.10
2019-02-25T03:54:52.216Z,5.00
2019-02-25T03:57:24.111Z,5.00
2019-02-25T03:59:56.347Z,5.00
2019-02-25T04:02:27.828Z,5.00
2019-02-25T04:04:59.264Z,5.00
2019-02-25T04:07:30.591Z,4.90
2019-02-25T04:10:01.737Z,4.90
2019-02-25T04:12:33.102Z,4.90
2019-02-25T04:15:05.274Z,4.90
2019-02-25T04:17:36.590Z,4.90
2019-02-25T04:20:10.893Z,4.90
2019-02-25T04:22:42.344Z,4.90
2019-02-25T04:25:13.639Z,4.90
2019-02-25T04:27:44.832Z,4.90
2019-02-25T04:30:27.680Z,4.80
2019-02-25T04:32:58.897Z,4.90
2019-02-25T04:35:31.061Z,4.90
2019-02-25T04:38:03.112Z,4.90
2019-02-25T04:40:34.549Z,4.90
2019-02-25T04:43:06.870Z,4.90
2019-02-25T04:45:56.778Z,5.00
2019-02-25T04:48:28.171Z,5.00
2019-02-25T04:50:59.515Z,5.00
2019-02-25T04:53:42.489Z,5.00
2019-02-25T04:56:13.813Z,4.90
2019-02-25T04:58:46.010Z,4.90
2019-02-25T05:01:17.299Z,5.00
2019-02-25T05:03:48.548Z,4.90
2019-02-25T05:06:19.899Z,5.00
2019-02-25T05:09:02.969Z,4.90
2019-02-25T05:11:37.637Z,5.00
2019-02-25T05:14:08.845Z,5.00
2019-02-25T05:16:40.366Z,5.00
2019-02-25T05:19:11.661Z,5.10
2019-02-25T05:21:43.011Z,5.10
2019-02-25T05:24:14.679Z,5.10
2019-02-25T05:26:46.011Z,5.10
2019-02-25T05:29:18.075Z,5.10
2019-02-25T05:31:49.443Z,5.20
2019-02-25T05:34:20.910Z,5.20
2019-02-25T05:36:52.078Z,5.20
2019-02-25T05:39:23.449Z,5.30
2019-02-25T05:41:54.628Z,5.30
2019-02-25T05:44:26.236Z,5.30
2019-02-25T05:46:57.315Z,5.30
2019-02-25T05:49:28.875Z,5.30
2019-02-25T05:52:00.167Z,5.40
2019-02-25T05:54:31.493Z,5.40
2019-02-25T05:57:03.029Z,5.40
2019-02-25T05:59:35.502Z,5.50
2019-02-25T06:02:06.821Z,5.50
2019-02-25T06:04:38.746Z,5.60
2019-02-25T06:07:10.561Z,5.70
2019-02-25T06:09:41.893Z,5.80
2019-02-25T06:12:13.197Z,6.00
2019-02-25T06:14:44.465Z,6.10
2019-02-25T06:17:15.706Z,6.10
2019-02-25T06:19:46.854Z,6.10
2019-02-25T06:22:18.059Z,6.10
2019-02-25T06:24:49.310Z,6.10
2019-02-25T06:27:30.297Z,6.30
2019-02-25T06:29:53.618Z,6.40
2019-02-25T06:32:26.069Z,6.60
2019-02-25T06:34:57.520Z,6.60
2019-02-25T06:37:28.601Z,6.60
2019-02-25T06:39:59.774Z,6.60
2019-02-25T06:42:31.069Z,6.70
2019-02-25T06:45:02.306Z,6.80
2019-02-25T06:47:33.622Z,6.90
2019-02-25T06:50:05.011Z,7.10
2019-02-25T06:52:36.218Z,7.40
2019-02-25T06:55:08.589Z,7.80
2019-02-25T06:57:41.053Z,7.60
2019-02-25T07:00:15.911Z,7.60
2019-02-25T07:02:47.514Z,7.70
2019-02-25T07:05:24.383Z,7.70
2019-02-25T07:07:58.543Z,7.60
2019-02-25T07:10:49.220Z,7.60
2019-02-25T07:13:35.793Z,7.60
2019-02-25T07:16:32.078Z,7.40
2019-02-25T07:19:20.779Z,7.40
2019-02-25T07:22:11.025Z,7.30
2019-02-25T07:24:55.778Z,7.20
2019-02-25T07:27:44.714Z,7.20
2019-02-25T07:30:37.821Z,7.10
2019-02-25T07:33:38.967Z,7.20
2019-02-25T07:36:29.109Z,7.30
2019-02-25T07:39:31.754Z,7.40
2019-02-25T07:42:14.008Z,7.50
2019-02-25T07:45:07.030Z,7.70
2019-02-25T07:48:06.199Z,7.80
2019-02-25T07:50:56.279Z,7.80
2019-02-25T07:53:41.888Z,7.80
2019-02-25T07:56:22.546Z,7.70
2019-02-25T07:59:03.121Z,7.80
2019-02-25T08:01:56.201Z,7.80
2019-02-25T08:04:38.636Z,8.00
2019-02-25T08:07:27.812Z,8.00
2019-02-25T08:10:30.098Z,7.90
2019-02-25T08:13:08.001Z,7.80
2019-02-25T08:15:45.716Z,7.80
2019-02-25T08:18:37.262Z,7.80
2019-02-25T08:21:20.659Z,7.70
2019-02-25T08:24:30.647Z,7.70
2019-02-25T08:27:12.428Z,7.90
2019-02-25T08:29:58.786Z,8.10
2019-02-25T08:33:11.664Z,8.40
2019-02-25T08:36:24.012Z,8.90
2019-02-25T08:39:38.537Z,9.90
2019-02-25T08:42:14.964Z,10.60
2019-02-25T08:44:54.100Z,10.10
2019-02-25T08:47:44.307Z,9.70
2019-02-25T08:50:15.844Z,9.50
2019-02-25T08:52:47.571Z,9.50
2019-02-25T08:55:18.989Z,9.20
2019-02-25T08:57:51.357Z,9.10
2019-02-25T09:00:22.656Z,8.90
2019-02-25T09:02:54.067Z,8.90
2019-02-25T09:05:25.134Z,8.80
2019-02-25T09:07:57.449Z,8.70
2019-02-25T09:10:28.885Z,8.70
2019-02-25T09:13:00.230Z,8.80
2019-02-25T09:15:32.547Z,9.20
2019-02-25T09:18:03.119Z,9.40
2019-02-25T09:20:34.388Z,9.40
2019-02-25T09:23:05.786Z,9.40
2019-02-25T09:25:37.055Z,9.60
2019-02-25T09:28:08.492Z,9.70
2019-02-25T09:30:39.871Z,9.70
2019-02-25T09:33:12.448Z,9.50
2019-02-25T09:35:43.754Z,10.00
2019-02-25T09:38:15.199Z,10.30
2019-02-25T09:40:46.531Z,10.20
2019-02-25T09:43:17.767Z,10.40
2019-02-25T09:45:50.042Z,10.80
2019-02-25T09:48:21.382Z,11.20
2019-02-25T09:50:52.735Z,11.40
2019-02-25T09:53:24.050Z,11.50
2019-02-25T09:55:56.710Z,11.60
2019-02-25T09:58:28.322Z,12.00
2019-02-25T10:01:00.155Z,12.30
2019-02-25T10:03:31.591Z,12.80
2019-02-25T10:06:03.666Z,12.90
2019-02-25T10:08:36.430Z,12.60
2019-02-25T10:11:07.678Z,12.40
2019-02-25T10:13:51.811Z,12.30
2019-02-25T10:16:23.383Z,12.20
2019-02-25T10:18:55.177Z,12.20
2019-02-25T10:21:26.474Z,12.50
2019-02-25T10:23:57.525Z,12.50
2019-02-25T10:26:29.182Z,12.70
2019-02-25T10:29:00.464Z,12.60
2019-02-25T10:31:31.673Z,12.70
2019-02-25T10:34:02.847Z,12.60
2019-02-25T10:36:34.175Z,12.80
2019-02-25T10:39:09.085Z,12.50
2019-02-25T10:41:40.469Z,12.50
2019-02-25T10:44:11.695Z,12.40
2019-02-25T10:46:44.830Z,12.40
2019-02-25T10:49:15.999Z,12.80
2019-02-25T10:51:47.534Z,12.80
2019-02-25T10:54:20.768Z,13.00
2019-02-25T10:57:07.755Z,13.30
2019-02-25T10:59:41.449Z,13.30
2019-02-25T11:02:13.690Z,13.10
2019-02-25T11:04:47.374Z,13.10
2019-02-25T11:07:19.090Z,12.80
2019-02-25T11:10:04.318Z,12.90
2019-02-25T11:12:42.977Z,12.90
2019-02-25T11:15:15.919Z,12.80
2019-02-25T11:17:47.648Z,12.70
2019-02-25T11:20:20.213Z,12.90
2019-02-25T11:22:52.646Z,13.00
2019-02-25T11:25:25.804Z,12.90
2019-02-25T11:27:56.998Z,12.90
2019-02-25T11:30:29.559Z,12.60
2019-02-25T11:33:00.934Z,12.70
2019-02-25T11:35:45.554Z,12.80
2019-02-25T11:38:16.702Z,12.80
2019-02-25T11:40:48.967Z,12.70
2019-02-25T11:43:21.602Z,12.60
2019-02-25T11:45:53.133Z,12.50
2019-02-25T11:48:24.954Z,12.40
2019-02-25T11:50:56.349Z,12.40
2019-02-25T11:53:28.257Z,12.40
2019-02-25T11:55:59.529Z,12.40
2019-02-25T11:58:30.991Z,12.30
2019-02-25T12:01:02.302Z,12.30
2019-02-25T12:03:34.781Z,12.50
2019-02-25T12:06:06.190Z,12.60
2019-02-25T12:08:48.766Z,12.60
2019-02-25T12:11:19.999Z,12.70
2019-02-25T12:14:10.049Z,12.70
2019-02-25T12:16:41.479Z,12.70
2019-02-25T12:19:18.022Z,12.70
2019-02-25T12:21:45.687Z,12.80
2019-02-25T12:24:16.998Z,12.80
2019-02-25T12:26:48.403Z,12.80
2019-02-25T12:29:19.673Z,12.90
2019-02-25T12:31:51.433Z,12.70
2019-02-25T12:34:22.740Z,12.90
2019-02-25T12:36:54.089Z,12.80
2019-02-25T12:39:25.442Z,12.90
2019-02-25T12:41:56.789Z,13.00
2019-02-25T12:44:28.111Z,13.20
2019-02-25T12:47:00.294Z,13.10
2019-02-25T12:49:31.523Z,13.10
2019-02-25T12:52:02.813Z,12.90
2019-02-25T12:54:34.233Z,13.00
2019-02-25T12:57:05.626Z,12.90
2019-02-25T12:59:36.873Z,12.70
2019-02-25T13:02:08.209Z,12.60
2019-02-25T13:04:39.783Z,12.50
2019-02-25T13:07:11.044Z,12.50
2019-02-25T13:09:42.257Z,12.50
2019-02-25T13:12:13.536Z,12.50
2019-02-25T13:14:44.743Z,12.40
2019-02-25T13:17:16.050Z,12.20
2019-02-25T13:19:47.387Z,12.10
2019-02-25T13:22:18.810Z,11.90
2019-02-25T13:24:50.031Z,11.70
2019-02-25T13:27:21.374Z,11.70
2019-02-25T13:29:53.784Z,11.50
2019-02-25T13:32:25.114Z,11.60
2019-02-25T13:34:56.449Z,11.50
2019-02-25T13:37:28.088Z,11.60
2019-02-25T13:39:59.232Z,11.60
2019-02-25T13:42:31.561Z,11.60
2019-02-25T13:45:21.602Z,11.40
2019-02-25T13:47:53.007Z,11.40
2019-02-25T13:50:24.339Z,11.40
2019-02-25T13:52:56.411Z,11.50
2019-02-25T13:55:27.672Z,11.70
2019-02-25T13:57:59.056Z,11.80
2019-02-25T14:00:30.324Z,11.70
2019-02-25T14:03:03.295Z,11.70
2019-02-25T14:05:34.808Z,11.70
2019-02-25T14:08:06.218Z,11.70
2019-02-25T14:10:37.595Z,11.50
2019-02-25T14:13:09.176Z,11.40
2019-02-25T14:15:40.421Z,11.30
2019-02-25T14:18:11.837Z,11.20
2019-02-25T14:20:43.538Z,11.00
2019-02-25T14:23:16.133Z,10.90
2019-02-25T14:25:47.719Z,10.60
2019-02-25T14:28:19.294Z,10.60
2019-02-25T14:30:51.643Z,10.50
2019-02-25T14:33:23.661Z,10.40
2019-02-25T14:35:56.569Z,10.40
2019-02-25T14:38:29.998Z,10.40
2019-02-25T14:41:01.897Z,10.40
2019-02-25T14:43:41.769Z,10.30
2019-02-25T14:46:11.805Z,10.30
2019-02-25T14:48:41.604Z,10.30
2019-02-25T14:51:15.834Z,10.20
2019-02-25T14:53:50.042Z,10.10
2019-02-25T14:56:22.143Z,10.10
2019-02-25T14:58:53.993Z,10.00
2019-02-25T15:01:27.041Z,9.90
2019-02-25T15:03:59.734Z,9.90
2019-02-25T15:06:32.563Z,9.90
2019-02-25T15:09:05.572Z,9.90
2019-02-25T15:11:39.479Z,9.80
2019-02-25T15:14:12.864Z,9.80
2019-02-25T15:16:44.170Z,9.80
2019-02-25T15:19:15.485Z,9.70
2019-02-25T15:21:47.588Z,9.60
2019-02-25T15:24:20.007Z,9.50
2019-02-25T15:26:51.483Z,9.40
2019-02-25T15:29:25.915Z,9.40
2019-02-25T15:31:58.954Z,9.30
2019-02-25T15:34:30.325Z,9.20
2019-02-25T15:37:02.672Z,9.20
2019-02-25T15:39:34.874Z,9.10
2019-02-25T15:42:08.160Z,9.10
2019-02-25T15:44:42.333Z,9.00
2019-02-25T15:47:15.092Z,8.90
2019-02-25T15:49:46.629Z,8.90
2019-02-25T15:52:18.801Z,8.80
2019-02-25T15:54:51.421Z,8.80
2019-02-25T15:57:24.519Z,8.80
2019-02-25T15:59:56.008Z,8.70
2019-02-25T16:02:27.299Z,8.60
2019-02-25T16:04:58.668Z,8.60
2019-02-25T16:07:31.715Z,8.60
2019-02-25T16:10:06.788Z,8.60
2019-02-25T16:12:38.349Z,8.60
2019-02-25T16:15:14.970Z,8.60
2019-02-25T16:17:49.585Z,8.50
2019-02-25T16:20:20.421Z,8.50
2019-02-25T16:22:51.800Z,8.50
2019-02-25T16:25:25.153Z,8.50
2019-02-25T16:27:58.229Z,8.50
2019-02-25T16:30:33.653Z,8.30
2019-02-25T16:33:07.293Z,8.30
2019-02-25T16:35:38.983Z,8.20
2019-02-25T16:38:11.412Z,8.10
2019-02-25T16:40:42.796Z,8.10
2019-02-25T16:43:14.338Z,8.10
2019-02-25T16:45:47.038Z,8.20
2019-02-25T16:48:19.263Z,8.10
2019-02-25T16:50:51.510Z,8.10
2019-02-25T16:53:22.835Z,8.00
2019-02-25T16:55:54.582Z,8.00
2019-02-25T16:58:27.608Z,8.00
2019-02-25T17:01:01.203Z,8.00
2019-02-25T17:03:34.818Z,8.00
2019-02-25T17:06:06.783Z,8.00
2019-02-25T17:08:39.026Z,8.00
2019-02-25T17:11:10.849Z,8.10
2019-02-25T17:13:43.744Z,8.10
2019-02-25T17:16:18.454Z,8.00
2019-02-25T17:18:48.271Z,8.00
2019-02-25T17:21:20.968Z,8.00
2019-02-25T17:24:11.078Z,8.00
2019-02-25T17:26:43.550Z,8.00
2019-02-25T17:29:15.787Z,8.00
2019-02-25T17:31:47.206Z,7.90
2019-02-25T17:34:19.233Z,7.90
2019-02-25T17:36:52.895Z,8.00
2019-02-25T17:39:24.369Z,7.90
2019-02-25T17:41:57.280Z,7.90
2019-02-25T17:44:30.012Z,7.90
2019-02-25T17:47:02.156Z,7.90
2019-02-25T17:49:35.832Z,7.80
2019-02-25T17:52:07.865Z,7.70
2019-02-25T17:54:39.991Z,7.70
2019-02-25T17:57:13.671Z,7.70
2019-02-25T17:59:46.253Z,7.70
2019-02-25T18:02:18.047Z,7.70
2019-02-25T18:04:51.291Z,7.60
2019-02-25T18:07:25.642Z,7.50
2019-02-25T18:09:59.359Z,7.50
2019-02-25T18:12:36.382Z,7.60
2019-02-25T18:15:11.589Z,7.50
2019-02-25T18:17:47.164Z,7.50
2019-02-25T18:20:21.410Z,7.50
2019-02-25T18:22:55.920Z,7.40
2019-02-25T18:25:29.674Z,7.40
2019-02-25T18:28:04.403Z,7.40
2019-02-25T18:30:38.409Z,7.40
2019-02-25T18:33:12.670Z,7.40
2019-02-25T18:35:47.125Z,7.40
2019-02-25T18:38:21.593Z,7.30
2019-02-25T18:41:00.405Z,7.40
2019-02-25T18:43:34.896Z,7.30
2019-02-25T18:46:07.437Z,7.30
2019-02-25T18:48:40.862Z,7.40
2019-02-25T18:51:35.021Z,7.40
2019-02-25T18:54:07.262Z,7.40
2019-02-25T18:56:40.341Z,7.50
2019-02-25T18:59:15.354Z,7.50
2019-02-25T19:01:47.691Z,7.50
2019-02-25T19:04:21.880Z,7.50
2019-02-25T19:06:54.946Z,7.50
2019-02-25T19:09:28.433Z,7.50
2019-02-25T19:12:01.865Z,7.40
2019-02-25T19:14:35.466Z,7.50
2019-02-25T19:17:08.894Z,7.50
2019-02-25T19:19:42.582Z,7.40
2019-02-25T19:22:17.866Z,7.40
2019-02-25T19:24:51.892Z,7.50
2019-02-25T19:27:27.220Z,7.40
2019-02-25T19:30:11.161Z,7.30
2019-02-25T19:32:44.373Z,7.30
2019-02-25T19:35:28.713Z,7.30
2019-02-25T19:38:03.654Z,7.30
2019-02-25T19:40:40.279Z,7.30
2019-02-25T19:43:12.950Z,7.30
2019-02-25T19:45:46.464Z,7.30
2019-02-25T19:48:21.777Z,7.30
2019-02-25T19:50:56.129Z,7.30
2019-02-25T19:53:33.778Z,7.30
2019-02-25T19:56:05.192Z,7.30
2019-02-25T19:58:41.136Z,7.30
2019-02-25T20:01:14.749Z,7.30
2019-02-25T20:03:48.457Z,7.30
2019-02-25T20:06:23.526Z,7.30
2019-02-25T20:08:56.401Z,7.30
2019-02-25T20:11:28.416Z,7.30
2019-02-25T20:14:01.585Z,7.30
2019-02-25T20:16:33.074Z,7.30
2019-02-25T20:19:05.164Z,7.30
2019-02-25T20:21:37.557Z,7.20
2019-02-25T20:24:12.367Z,7.20
2019-02-25T20:26:41.932Z,7.20
2019-02-25T20:29:13.397Z,7.20
2019-02-25T20:31:44.845Z,7.20
2019-02-25T20:34:18.504Z,7.30
2019-02-25T20:36:52.520Z,7.30
2019-02-25T20:39:23.280Z,7.30
2019-02-25T20:41:56.514Z,7.20
2019-02-25T20:44:28.449Z,7.20
2019-02-25T20:47:01.961Z,7.20
2019-02-25T20:49:33.352Z,7.20
2019-02-25T20:52:05.613Z,7.20
2019-02-25T20:54:38.816Z,7.20
2019-02-25T20:57:10.590Z,7.20
2019-02-25T20:59:42.634Z,7.20
2019-02-25T21:02:16.287Z,7.20
2019-02-25T21:04:48.600Z,7.20
2019-02-25T21:07:19.846Z,7.20
2019-02-25T21:09:51.072Z,7.30
2019-02-25T21:12:22.796Z,7.30
2019-02-25T21:15:13.863Z,7.30
2019-02-25T21:17:45.203Z,7.30
2019-02-25T21:20:16.449Z,7.20
2019-02-25T21:22:47.753Z,7.20
2019-02-25T21:25:22.165Z,7.20
2019-02-25T21:28:06.684Z,7.20
2019-02-25T21:30:41.196Z,7.20
2019-02-25T21:33:13.287Z,7.10
2019-02-25T21:35:43.924Z,7.10
2019-02-25T21:38:22.205Z,7.10
2019-02-25T21:40:54.916Z,7.10
2019-02-25T21:43:28.949Z,7.10
2019-02-25T21:46:01.641Z,7.10
2019-02-25T21:48:34.876Z,7.10
2019-02-25T21:51:08.030Z,7.00
2019-02-25T21:53:39.777Z,7.00
2019-02-25T21:56:11.097Z,7.00
2019-02-25T21:58:45.068Z,7.00
2019-02-25T22:01:16.378Z,7.00
2019-02-25T22:03:49.907Z,7.10
2019-02-25T22:06:22.624Z,7.10
2019-02-25T22:08:54.168Z,7.10
2019-02-25T22:11:26.749Z,7.20
2019-02-25T22:13:58.149Z,7.20
2019-02-25T22:16:30.029Z,7.20
2019-02-25T22:19:02.752Z,7.20
2019-02-25T22:21:34.160Z,7.30
2019-02-25T22:24:07.433Z,7.30
2019-02-25T22:26:55.861Z,7.30
2019-02-25T22:29:26.963Z,7.30
2019-02-25T22:31:59.691Z,7.30
2019-02-25T22:34:31.295Z,7.20
2019-02-25T22:37:02.693Z,7.20
2019-02-25T22:39:33.972Z,7.20
2019-02-25T22:42:07.226Z,7.20
2019-02-25T22:44:37.968Z,7.20
2019-02-25T22:47:11.202Z,7.20
2019-02-25T22:49:42.295Z,7.30
2019-02-25T22:52:13.651Z,7.30
2019-02-25T22:54:45.817Z,7.20
2019-02-25T22:57:18.719Z,7.30
2019-02-25T22:59:51.193Z,7.30
2019-02-25T23:02:25.117Z,7.40
2019-02-25T23:04:56.276Z,7.50
2019-02-25T23:07:27.683Z,7.50
2019-02-25T23:10:12.608Z,7.50
2019-02-25T23:12:43.158Z,7.50
2019-02-25T23:15:15.632Z,7.50
2019-02-25T23:17:47.006Z,7.50
2019-02-25T23:20:36.927Z,7.60
2019-02-25T23:23:08.390Z,7.50
2019-02-25T23:25:39.547Z,7.60
2019-02-25T23:28:10.869Z,7.50
2019-02-25T23:30:42.196Z,7.50
2019-02-25T23:33:14.444Z,7.50
2019-02-25T23:35:46.961Z,7.50
2019-02-25T23:38:18.801Z,7.50
2019-02-25T23:40:50.089Z,7.50
2019-02-25T23:43:22.158Z,7.50
2019-02-25T23:45:53.306Z,7.50
2019-02-25T23:48:26.734Z,7.50
2019-02-25T23:50:59.468Z,7.50
2019-02-25T23:53:31.125Z,7.50
2019-02-25T23:56:03.186Z,7.60
2019-02-25T23:58:38.345Z,7.60
